Nearby METAR Reports

 

LGTG - Tanagra, Greece
Distance from station: ESE 75km
Updated: 25/02/2024 13:50
Few Clouds
Few Clouds
 Wind from ENE
Wind: ENE 11 km/h
Temperature: 17°C
Dew Point: 11°C
Humidity: 68%
Barometer: 1015 hPa
Clouds: Few Clouds
Visibility: 10 km
Cloud details: Few Clouds 914 m
2024/02/25 11:50 LGTG 251150Z 06006KT 9999 FEW030 17/11 Q1015 RMK SCT080 BKN180 BLU
LGBL - Nea Anchialos, Greece
Distance from station: NNE 84km
Updated: 25/02/2024 13:50
Partly Cloudy
Partly Cloudy
 Wind from ENE
Wind: ENE 7 km/h
Temperature: 18°C
Dew Point: 10°C
Humidity: 60%
Barometer: 1014 hPa
Clouds: Partly Cloudy
Visibility: 10 km
Cloud details: Few Clouds 1067 m
Partly Cloudy 2438 m
2024/02/25 11:50 LGBL 251150Z 07004KT 9999 FEW035 SCT080 18/10 Q1014
 
LGEL - Elefsis (hel-Afb), Greece
Distance from station: ESE 96km
Updated: 25/02/2024 13:50
Few Clouds
Few Clouds
 Wind from S
Wind: S 19 km/h
Temperature: 19°C
Dew Point: 7°C
Humidity: 46%
Barometer: 1015 hPa
Clouds: Few Clouds
Visibility: 10 km
Cloud details: Few Clouds 762 m
2024/02/25 11:50 LGEL 251150Z 17010KT 9999 FEW025 19/07 Q1015
LGRX - Araxos (civ/Afb), Greece
Distance from station: WSW 108km
Updated: 25/02/2024 13:50
Overcast
Overcast
 Wind from ENE
Wind: ENE 7 km/h
Temperature: 17°C
Dew Point: 11°C
Humidity: 68%
Barometer: 1011 hPa
Clouds: Overcast
Visibility: 10 km
Cloud details: Few Clouds 1067 m
Overcast 2438 m
2024/02/25 11:50 LGRX 251150Z 06004KT 9999 FEW035 OVC080 17/11 Q1011
 
LGSK - Skiathos Island, Greece
Distance from station: NE 111km
Updated: 24/02/2024 19:50
NOT Current
Clear
Clear
 Wind from varies
Wind: varies 6 km/h
Temperature: 14°C
Dew Point: 10°C
Humidity: 77%
Barometer: 1016 hPa
Summary: Clear
Visibility: greater than 10 km
2024/02/24 17:50 LGSK 241750Z VRB03KT CAVOK 14/10 Q1016
LGAD - Andravida (civ/A), Greece
Distance from station: WSW 131km
Updated: 25/02/2024 13:50
Mostly Cloudy
Mostly Cloudy
 Wind from ESE
Wind: ESE 19 km/h
Temperature: 19°C
Dew Point: 9°C
Humidity: 52%
Barometer: 1010 hPa
Clouds: Mostly Cloudy
Visibility: 10 km
Cloud details: Partly Cloudy 762 m
Mostly Cloudy 2438 m
2024/02/25 11:50 LGAD 251150Z 11010KT 9999 SCT025 BKN080 19/09 Q1010
 
LGAV - Athens/El-Venizelos International Airport, Greece
Distance from station: ESE 134km
Updated: 25/02/2024 13:50
Partly Cloudy
Partly Cloudy
 Wind from SE
Wind: SE 20 km/h
Temperature: 19°C
Dew Point: 8°C
Humidity: 49%
Barometer: 1015 hPa
Clouds: Partly Cloudy
Visibility: 10 km
Cloud details: Few Clouds 549 m
Partly Cloudy 2134 m
2024/02/25 11:50 LGAV 251150Z 13011KT 090V170 9999 FEW018 SCT070 19/08 Q1015 NOSIG
LGPZ - Preveza/Aktion, Greece
Distance from station: W 159km
Updated: 25/02/2024 13:50
Mostly Cloudy
Mostly Cloudy
 Wind from NE
Wind: NE 33 km/h
Temperature: 15°C
Dew Point: 12°C
Humidity: 82%
Barometer: 1011 hPa
Clouds: Mostly Cloudy
Visibility: 10 km
Cloud details: Few Clouds 457 m
Partly Cloudy 1067 m
Mostly Cloudy 2438 m
2024/02/25 11:50 LGPZ 251150Z 05018KT 9999 FEW015 SCT035 BKN080 15/12 Q1011